sensor_id;sensor_type;location;lat;lon;timestamp;temperature;humidity
22364;DHT22;11349;53.412;-1.328;2024-02-16T00:02:00;12.90;99.90
22364;DHT22;11349;53.412;-1.328;2024-02-16T00:04:26;12.90;99.90
22364;DHT22;11349;53.412;-1.328;2024-02-16T00:06:52;12.90;99.90
22364;DHT22;11349;53.412;-1.328;2024-02-16T00:09:18;12.90;99.90
22364;DHT22;11349;53.412;-1.328;2024-02-16T00:11:44;12.90;99.90
22364;DHT22;11349;53.412;-1.328;2024-02-16T00:14:10;12.80;99.90
22364;DHT22;11349;53.412;-1.328;2024-02-16T00:16:36;12.80;99.90
22364;DHT22;11349;53.412;-1.328;2024-02-16T00:19:02;12.80;99.90
22364;DHT22;11349;53.412;-1.328;2024-02-16T00:21:28;12.80;99.90
22364;DHT22;11349;53.412;-1.328;2024-02-16T00:23:54;12.70;99.90
22364;DHT22;11349;53.412;-1.328;2024-02-16T00:26:20;12.80;99.90
22364;DHT22;11349;53.412;-1.328;2024-02-16T00:28:46;12.80;99.90
22364;DHT22;11349;53.412;-1.328;2024-02-16T00:31:12;12.70;99.90
22364;DHT22;11349;53.412;-1.328;2024-02-16T00:33:38;13.30;99.90
22364;DHT22;11349;53.412;-1.328;2024-02-16T00:36:04;13.10;99.90
22364;DHT22;11349;53.412;-1.328;2024-02-16T00:38:30;13.00;99.90
22364;DHT22;11349;53.412;-1.328;2024-02-16T00:40:55;12.90;99.90
22364;DHT22;11349;53.412;-1.328;2024-02-16T00:43:21;12.80;99.90
22364;DHT22;11349;53.412;-1.328;2024-02-16T00:45:47;12.70;99.90
22364;DHT22;11349;53.412;-1.328;2024-02-16T00:48:13;12.70;99.90
22364;DHT22;11349;53.412;-1.328;2024-02-16T00:50:39;12.70;99.90
22364;DHT22;11349;53.412;-1.328;2024-02-16T00:53:05;12.60;99.90
22364;DHT22;11349;53.412;-1.328;2024-02-16T00:55:31;12.60;99.90
22364;DHT22;11349;53.412;-1.328;2024-02-16T00:57:56;12.50;99.90
22364;DHT22;11349;53.412;-1.328;2024-02-16T01:00:22;12.50;99.90
22364;DHT22;11349;53.412;-1.328;2024-02-16T01:02:52;12.50;99.90
22364;DHT22;11349;53.412;-1.328;2024-02-16T01:05:18;12.50;99.90
22364;DHT22;11349;53.412;-1.328;2024-02-16T01:07:44;12.40;99.90
22364;DHT22;11349;53.412;-1.328;2024-02-16T01:10:11;12.40;99.90
22364;DHT22;11349;53.412;-1.328;2024-02-16T01:12:37;12.40;99.90
22364;DHT22;11349;53.412;-1.328;2024-02-16T01:15:04;12.40;99.90
22364;DHT22;11349;53.412;-1.328;2024-02-16T01:17:30;12.30;99.90
22364;DHT22;11349;53.412;-1.328;2024-02-16T01:19:58;12.30;99.90
22364;DHT22;11349;53.412;-1.328;2024-02-16T01:22:24;12.30;99.90
22364;DHT22;11349;53.412;-1.328;2024-02-16T01:24:50;12.20;99.90
22364;DHT22;11349;53.412;-1.328;2024-02-16T01:27:16;12.30;99.90
22364;DHT22;11349;53.412;-1.328;2024-02-16T01:29:42;12.20;99.90
22364;DHT22;11349;53.412;-1.328;2024-02-16T01:32:08;12.20;99.90
22364;DHT22;11349;53.412;-1.328;2024-02-16T01:34:34;12.20;99.90
22364;DHT22;11349;53.412;-1.328;2024-02-16T01:36:59;12.20;99.90
22364;DHT22;11349;53.412;-1.328;2024-02-16T01:39:25;12.10;99.90
22364;DHT22;11349;53.412;-1.328;2024-02-16T01:41:51;12.10;99.90
22364;DHT22;11349;53.412;-1.328;2024-02-16T01:44:16;12.10;99.90
22364;DHT22;11349;53.412;-1.328;2024-02-16T01:46:43;12.10;99.90
22364;DHT22;11349;53.412;-1.328;2024-02-16T01:49:10;12.10;99.90
22364;DHT22;11349;53.412;-1.328;2024-02-16T01:51:37;12.10;99.90
22364;DHT22;11349;53.412;-1.328;2024-02-16T01:54:03;12.10;99.90
22364;DHT22;11349;53.412;-1.328;2024-02-16T01:56:29;12.00;99.90
22364;DHT22;11349;53.412;-1.328;2024-02-16T01:58:55;12.00;99.90
22364;DHT22;11349;53.412;-1.328;2024-02-16T02:01:20;12.00;99.90
22364;DHT22;11349;53.412;-1.328;2024-02-16T02:03:46;12.00;99.90
22364;DHT22;11349;53.412;-1.328;2024-02-16T02:06:12;12.00;99.90
22364;DHT22;11349;53.412;-1.328;2024-02-16T02:08:37;11.90;99.90
22364;DHT22;11349;53.412;-1.328;2024-02-16T02:11:03;11.90;99.90
22364;DHT22;11349;53.412;-1.328;2024-02-16T02:13:30;11.90;99.90
22364;DHT22;11349;53.412;-1.328;2024-02-16T02:15:58;11.90;99.90
22364;DHT22;11349;53.412;-1.328;2024-02-16T02:18:25;11.80;99.90
22364;DHT22;11349;53.412;-1.328;2024-02-16T02:20:50;11.80;99.90
22364;DHT22;11349;53.412;-1.328;2024-02-16T02:23:16;11.80;99.90
22364;DHT22;11349;53.412;-1.328;2024-02-16T02:25:42;11.80;99.90
22364;DHT22;11349;53.412;-1.328;2024-02-16T02:28:07;11.80;99.90
22364;DHT22;11349;53.412;-1.328;2024-02-16T02:30:33;11.80;99.90
22364;DHT22;11349;53.412;-1.328;2024-02-16T02:32:59;11.80;99.90
22364;DHT22;11349;53.412;-1.328;2024-02-16T02:35:25;11.80;99.90
22364;DHT22;11349;53.412;-1.328;2024-02-16T02:37:51;11.80;99.90
22364;DHT22;11349;53.412;-1.328;2024-02-16T02:40:16;11.80;99.90
22364;DHT22;11349;53.412;-1.328;2024-02-16T02:42:42;11.80;99.90
22364;DHT22;11349;53.412;-1.328;2024-02-16T02:45:09;11.80;99.90
22364;DHT22;11349;53.412;-1.328;2024-02-16T02:47:35;11.70;99.90
22364;DHT22;11349;53.412;-1.328;2024-02-16T02:50:01;11.70;99.90
22364;DHT22;11349;53.412;-1.328;2024-02-16T02:52:26;11.70;99.90
22364;DHT22;11349;53.412;-1.328;2024-02-16T02:54:52;11.60;99.90
22364;DHT22;11349;53.412;-1.328;2024-02-16T02:57:18;11.70;99.90
22364;DHT22;11349;53.412;-1.328;2024-02-16T02:59:44;11.70;99.90
22364;DHT22;11349;53.412;-1.328;2024-02-16T03:02:11;11.70;99.90
22364;DHT22;11349;53.412;-1.328;2024-02-16T03:04:36;11.70;99.90
22364;DHT22;11349;53.412;-1.328;2024-02-16T03:07:02;11.70;99.90
22364;DHT22;11349;53.412;-1.328;2024-02-16T03:09:28;11.70;99.90
22364;DHT22;11349;53.412;-1.328;2024-02-16T03:11:54;11.70;99.90
22364;DHT22;11349;53.412;-1.328;2024-02-16T03:14:19;11.70;99.90
22364;DHT22;11349;53.412;-1.328;2024-02-16T03:16:45;11.70;99.90
22364;DHT22;11349;53.412;-1.328;2024-02-16T03:19:11;11.60;99.90
22364;DHT22;11349;53.412;-1.328;2024-02-16T03:21:36;11.60;99.90
22364;DHT22;11349;53.412;-1.328;2024-02-16T03:24:03;11.60;99.90
22364;DHT22;11349;53.412;-1.328;2024-02-16T03:26:31;11.70;99.90
22364;DHT22;11349;53.412;-1.328;2024-02-16T03:28:57;11.60;99.90
22364;DHT22;11349;53.412;-1.328;2024-02-16T03:31:24;11.50;99.90
22364;DHT22;11349;53.412;-1.328;2024-02-16T03:33:51;11.60;99.90
22364;DHT22;11349;53.412;-1.328;2024-02-16T03:36:18;11.50;99.90
22364;DHT22;11349;53.412;-1.328;2024-02-16T03:38:45;11.50;99.90
22364;DHT22;11349;53.412;-1.328;2024-02-16T03:41:24;11.50;99.90
22364;DHT22;11349;53.412;-1.328;2024-02-16T03:43:50;11.40;99.90
22364;DHT22;11349;53.412;-1.328;2024-02-16T03:46:16;11.40;99.90
22364;DHT22;11349;53.412;-1.328;2024-02-16T03:48:42;11.40;99.90
22364;DHT22;11349;53.412;-1.328;2024-02-16T03:51:08;11.40;99.90
22364;DHT22;11349;53.412;-1.328;2024-02-16T03:53:34;11.40;99.90
22364;DHT22;11349;53.412;-1.328;2024-02-16T03:56:00;11.40;99.90
22364;DHT22;11349;53.412;-1.328;2024-02-16T03:58:25;11.50;99.90
22364;DHT22;11349;53.412;-1.328;2024-02-16T04:00:52;11.40;99.90
22364;DHT22;11349;53.412;-1.328;2024-02-16T04:03:20;11.50;99.90
22364;DHT22;11349;53.412;-1.328;2024-02-16T04:05:46;11.50;99.90
22364;DHT22;11349;53.412;-1.328;2024-02-16T04:08:12;11.50;99.90
22364;DHT22;11349;53.412;-1.328;2024-02-16T04:10:37;11.50;99.90
22364;DHT22;11349;53.412;-1.328;2024-02-16T04:13:03;11.40;99.90
22364;DHT22;11349;53.412;-1.328;2024-02-16T04:15:30;11.50;99.90
22364;DHT22;11349;53.412;-1.328;2024-02-16T04:17:55;11.40;99.90
22364;DHT22;11349;53.412;-1.328;2024-02-16T04:20:21;11.40;99.90
22364;DHT22;11349;53.412;-1.328;2024-02-16T04:22:47;11.40;99.90
22364;DHT22;11349;53.412;-1.328;2024-02-16T04:25:13;11.40;99.90
22364;DHT22;11349;53.412;-1.328;2024-02-16T04:27:39;11.40;99.90
22364;DHT22;11349;53.412;-1.328;2024-02-16T04:30:05;11.40;99.90
22364;DHT22;11349;53.412;-1.328;2024-02-16T04:32:32;11.40;99.90
22364;DHT22;11349;53.412;-1.328;2024-02-16T04:34:58;11.40;99.90
22364;DHT22;11349;53.412;-1.328;2024-02-16T04:37:25;11.40;99.90
22364;DHT22;11349;53.412;-1.328;2024-02-16T04:39:51;11.40;99.90
22364;DHT22;11349;53.412;-1.328;2024-02-16T04:42:17;11.40;99.90
22364;DHT22;11349;53.412;-1.328;2024-02-16T04:44:43;11.40;99.90
22364;DHT22;11349;53.412;-1.328;2024-02-16T04:47:09;11.40;99.90
22364;DHT22;11349;53.412;-1.328;2024-02-16T04:49:35;11.40;99.90
22364;DHT22;11349;53.412;-1.328;2024-02-16T04:52:01;11.40;99.90
22364;DHT22;11349;53.412;-1.328;2024-02-16T04:54:26;11.40;99.90
22364;DHT22;11349;53.412;-1.328;2024-02-16T04:56:52;11.40;99.90
22364;DHT22;11349;53.412;-1.328;2024-02-16T04:59:18;11.40;99.90
22364;DHT22;11349;53.412;-1.328;2024-02-16T05:01:44;11.40;99.90
22364;DHT22;11349;53.412;-1.328;2024-02-16T05:04:13;11.40;99.90
22364;DHT22;11349;53.412;-1.328;2024-02-16T05:06:43;11.40;99.90
22364;DHT22;11349;53.412;-1.328;2024-02-16T05:09:09;11.40;99.90
22364;DHT22;11349;53.412;-1.328;2024-02-16T05:11:35;11.40;99.90
22364;DHT22;11349;53.412;-1.328;2024-02-16T05:14:00;11.40;99.90
22364;DHT22;11349;53.412;-1.328;2024-02-16T05:16:27;11.40;99.90
22364;DHT22;11349;53.412;-1.328;2024-02-16T05:18:54;11.70;99.90
22364;DHT22;11349;53.412;-1.328;2024-02-16T05:21:22;11.60;99.90
22364;DHT22;11349;53.412;-1.328;2024-02-16T05:23:48;11.70;99.90
22364;DHT22;11349;53.412;-1.328;2024-02-16T05:26:13;11.80;99.90
22364;DHT22;11349;53.412;-1.328;2024-02-16T05:28:39;11.70;99.90
22364;DHT22;11349;53.412;-1.328;2024-02-16T05:31:16;11.60;99.90
22364;DHT22;11349;53.412;-1.328;2024-02-16T05:33:47;11.60;99.90
22364;DHT22;11349;53.412;-1.328;2024-02-16T05:36:15;11.60;99.90
22364;DHT22;11349;53.412;-1.328;2024-02-16T05:38:41;11.60;99.90
22364;DHT22;11349;53.412;-1.328;2024-02-16T05:41:08;11.50;99.90
22364;DHT22;11349;53.412;-1.328;2024-02-16T05:43:34;11.50;99.90
22364;DHT22;11349;53.412;-1.328;2024-02-16T05:46:00;11.50;99.90
22364;DHT22;11349;53.412;-1.328;2024-02-16T05:48:26;11.50;99.90
22364;DHT22;11349;53.412;-1.328;2024-02-16T05:51:02;11.40;99.90
22364;DHT22;11349;53.412;-1.328;2024-02-16T05:53:28;11.40;99.90
22364;DHT22;11349;53.412;-1.328;2024-02-16T05:55:54;11.40;99.90
22364;DHT22;11349;53.412;-1.328;2024-02-16T05:58:21;11.30;99.90
22364;DHT22;11349;53.412;-1.328;2024-02-16T06:00:46;11.30;99.90
22364;DHT22;11349;53.412;-1.328;2024-02-16T06:03:14;11.30;99.90
22364;DHT22;11349;53.412;-1.328;2024-02-16T06:05:40;11.30;99.90
22364;DHT22;11349;53.412;-1.328;2024-02-16T06:08:12;11.30;99.90
22364;DHT22;11349;53.412;-1.328;2024-02-16T06:10:38;11.30;99.90
22364;DHT22;11349;53.412;-1.328;2024-02-16T06:13:04;11.20;99.90
22364;DHT22;11349;53.412;-1.328;2024-02-16T06:15:29;11.30;99.90
22364;DHT22;11349;53.412;-1.328;2024-02-16T06:17:56;11.20;99.90
22364;DHT22;11349;53.412;-1.328;2024-02-16T06:20:22;11.20;99.90
22364;DHT22;11349;53.412;-1.328;2024-02-16T06:22:48;11.20;99.90
22364;DHT22;11349;53.412;-1.328;2024-02-16T06:25:14;11.20;99.90
22364;DHT22;11349;53.412;-1.328;2024-02-16T06:27:40;11.20;99.90
22364;DHT22;11349;53.412;-1.328;2024-02-16T06:30:07;11.20;99.90
22364;DHT22;11349;53.412;-1.328;2024-02-16T06:32:38;11.20;99.90
22364;DHT22;11349;53.412;-1.328;2024-02-16T06:35:04;11.10;99.90
22364;DHT22;11349;53.412;-1.328;2024-02-16T06:37:29;11.10;99.90
22364;DHT22;11349;53.412;-1.328;2024-02-16T06:39:56;11.00;99.90
22364;DHT22;11349;53.412;-1.328;2024-02-16T06:42:22;11.00;99.90
22364;DHT22;11349;53.412;-1.328;2024-02-16T06:44:48;11.00;99.90
22364;DHT22;11349;53.412;-1.328;2024-02-16T06:47:14;11.00;99.90
22364;DHT22;11349;53.412;-1.328;2024-02-16T06:49:39;10.90;99.90
22364;DHT22;11349;53.412;-1.328;2024-02-16T06:52:05;10.90;99.90
22364;DHT22;11349;53.412;-1.328;2024-02-16T06:54:31;10.90;99.90
22364;DHT22;11349;53.412;-1.328;2024-02-16T06:56:57;10.90;99.90
22364;DHT22;11349;53.412;-1.328;2024-02-16T06:59:22;10.90;99.90
22364;DHT22;11349;53.412;-1.328;2024-02-16T07:01:48;10.90;99.90
22364;DHT22;11349;53.412;-1.328;2024-02-16T07:04:14;10.80;99.90
22364;DHT22;11349;53.412;-1.328;2024-02-16T07:06:40;10.80;99.90
22364;DHT22;11349;53.412;-1.328;2024-02-16T07:09:06;10.80;99.90
22364;DHT22;11349;53.412;-1.328;2024-02-16T07:11:32;10.70;99.90
22364;DHT22;11349;53.412;-1.328;2024-02-16T07:14:00;10.80;99.90
22364;DHT22;11349;53.412;-1.328;2024-02-16T07:16:28;10.80;99.90
22364;DHT22;11349;53.412;-1.328;2024-02-16T07:18:54;10.70;99.90
22364;DHT22;11349;53.412;-1.328;2024-02-16T07:21:19;10.80;99.90
22364;DHT22;11349;53.412;-1.328;2024-02-16T07:23:47;10.90;99.90
22364;DHT22;11349;53.412;-1.328;2024-02-16T07:26:13;10.80;99.90
22364;DHT22;11349;53.412;-1.328;2024-02-16T07:28:39;10.90;99.90
22364;DHT22;11349;53.412;-1.328;2024-02-16T07:31:06;10.90;99.90
22364;DHT22;11349;53.412;-1.328;2024-02-16T07:33:31;11.10;99.90
22364;DHT22;11349;53.412;-1.328;2024-02-16T07:35:57;11.00;99.90
22364;DHT22;11349;53.412;-1.328;2024-02-16T07:38:23;11.50;99.90
22364;DHT22;11349;53.412;-1.328;2024-02-16T07:40:49;11.20;99.90
22364;DHT22;11349;53.412;-1.328;2024-02-16T07:43:16;11.20;99.90
22364;DHT22;11349;53.412;-1.328;2024-02-16T07:45:42;11.20;99.90
22364;DHT22;11349;53.412;-1.328;2024-02-16T07:48:08;11.20;99.90
22364;DHT22;11349;53.412;-1.328;2024-02-16T07:50:34;11.10;99.90
22364;DHT22;11349;53.412;-1.328;2024-02-16T07:52:59;11.10;99.90
22364;DHT22;11349;53.412;-1.328;2024-02-16T07:55:25;11.10;99.90
22364;DHT22;11349;53.412;-1.328;2024-02-16T07:57:51;11.20;99.90
22364;DHT22;11349;53.412;-1.328;2024-02-16T08:00:17;11.10;99.90
22364;DHT22;11349;53.412;-1.328;2024-02-16T08:02:43;10.90;99.90
22364;DHT22;11349;53.412;-1.328;2024-02-16T08:05:12;11.20;99.90
22364;DHT22;11349;53.412;-1.328;2024-02-16T08:07:39;11.00;99.90
22364;DHT22;11349;53.412;-1.328;2024-02-16T08:10:06;11.10;99.90
22364;DHT22;11349;53.412;-1.328;2024-02-16T08:12:32;11.20;99.90
22364;DHT22;11349;53.412;-1.328;2024-02-16T08:15:02;11.30;99.90
22364;DHT22;11349;53.412;-1.328;2024-02-16T08:17:29;11.30;99.90
22364;DHT22;11349;53.412;-1.328;2024-02-16T08:19:55;11.50;99.90
22364;DHT22;11349;53.412;-1.328;2024-02-16T08:22:21;11.40;99.90
22364;DHT22;11349;53.412;-1.328;2024-02-16T08:24:47;11.30;99.90
22364;DHT22;11349;53.412;-1.328;2024-02-16T08:27:15;11.50;99.90
22364;DHT22;11349;53.412;-1.328;2024-02-16T08:29:41;11.80;99.90
22364;DHT22;11349;53.412;-1.328;2024-02-16T08:32:07;11.50;99.90
22364;DHT22;11349;53.412;-1.328;2024-02-16T08:34:34;11.80;99.90
22364;DHT22;11349;53.412;-1.328;2024-02-16T08:37:03;11.70;99.90
22364;DHT22;11349;53.412;-1.328;2024-02-16T08:39:29;11.50;99.90
22364;DHT22;11349;53.412;-1.328;2024-02-16T08:41:56;11.30;99.90
22364;DHT22;11349;53.412;-1.328;2024-02-16T08:44:21;11.30;99.90
22364;DHT22;11349;53.412;-1.328;2024-02-16T08:46:47;11.40;99.90
22364;DHT22;11349;53.412;-1.328;2024-02-16T08:49:15;11.50;99.90
22364;DHT22;11349;53.412;-1.328;2024-02-16T08:51:42;11.60;99.90
22364;DHT22;11349;53.412;-1.328;2024-02-16T08:54:07;11.80;99.90
22364;DHT22;11349;53.412;-1.328;2024-02-16T08:56:34;12.00;99.90
22364;DHT22;11349;53.412;-1.328;2024-02-16T08:59:01;12.00;99.90
22364;DHT22;11349;53.412;-1.328;2024-02-16T09:01:53;12.10;99.90
22364;DHT22;11349;53.412;-1.328;2024-02-16T09:04:19;12.50;99.90
22364;DHT22;11349;53.412;-1.328;2024-02-16T09:06:45;12.50;99.90
22364;DHT22;11349;53.412;-1.328;2024-02-16T09:09:10;12.30;99.90
22364;DHT22;11349;53.412;-1.328;2024-02-16T09:11:36;12.30;99.90
22364;DHT22;11349;53.412;-1.328;2024-02-16T09:14:02;12.60;99.90
22364;DHT22;11349;53.412;-1.328;2024-02-16T09:16:28;12.50;99.90
22364;DHT22;11349;53.412;-1.328;2024-02-16T09:18:54;12.40;99.90
22364;DHT22;11349;53.412;-1.328;2024-02-16T09:21:20;12.80;99.90
22364;DHT22;11349;53.412;-1.328;2024-02-16T09:23:45;12.80;99.90
22364;DHT22;11349;53.412;-1.328;2024-02-16T09:26:11;12.80;99.90
22364;DHT22;11349;53.412;-1.328;2024-02-16T09:28:40;13.00;99.90
22364;DHT22;11349;53.412;-1.328;2024-02-16T09:31:13;13.10;99.90
22364;DHT22;11349;53.412;-1.328;2024-02-16T09:33:39;13.20;99.90
22364;DHT22;11349;53.412;-1.328;2024-02-16T09:36:05;13.30;99.90
22364;DHT22;11349;53.412;-1.328;2024-02-16T09:38:31;13.10;99.90
22364;DHT22;11349;53.412;-1.328;2024-02-16T09:40:57;13.30;99.90
22364;DHT22;11349;53.412;-1.328;2024-02-16T09:43:28;13.00;99.90
22364;DHT22;11349;53.412;-1.328;2024-02-16T09:45:55;13.10;99.90
22364;DHT22;11349;53.412;-1.328;2024-02-16T09:48:22;13.20;99.90
22364;DHT22;11349;53.412;-1.328;2024-02-16T09:50:53;12.80;99.90
22364;DHT22;11349;53.412;-1.328;2024-02-16T09:53:20;12.70;99.90
22364;DHT22;11349;53.412;-1.328;2024-02-16T09:55:49;12.90;99.90
22364;DHT22;11349;53.412;-1.328;2024-02-16T09:58:17;13.10;99.90
22364;DHT22;11349;53.412;-1.328;2024-02-16T10:00:53;12.90;99.90
22364;DHT22;11349;53.412;-1.328;2024-02-16T10:03:24;13.10;99.90
22364;DHT22;11349;53.412;-1.328;2024-02-16T10:05:52;13.00;99.90
22364;DHT22;11349;53.412;-1.328;2024-02-16T10:08:20;12.80;99.90
22364;DHT22;11349;53.412;-1.328;2024-02-16T10:10:46;12.90;99.90
22364;DHT22;11349;53.412;-1.328;2024-02-16T10:13:13;12.90;99.90
22364;DHT22;11349;53.412;-1.328;2024-02-16T10:15:38;13.20;99.90
22364;DHT22;11349;53.412;-1.328;2024-02-16T10:18:05;13.20;99.90
22364;DHT22;11349;53.412;-1.328;2024-02-16T10:20:35;13.10;99.90
22364;DHT22;11349;53.412;-1.328;2024-02-16T10:23:05;13.20;99.90
22364;DHT22;11349;53.412;-1.328;2024-02-16T10:25:32;13.20;99.90
22364;DHT22;11349;53.412;-1.328;2024-02-16T10:27:58;13.30;99.90
22364;DHT22;11349;53.412;-1.328;2024-02-16T10:30:29;13.40;99.90
22364;DHT22;11349;53.412;-1.328;2024-02-16T10:32:59;13.80;99.90
22364;DHT22;11349;53.412;-1.328;2024-02-16T10:35:25;13.70;99.90
22364;DHT22;11349;53.412;-1.328;2024-02-16T10:37:52;13.40;99.90
22364;DHT22;11349;53.412;-1.328;2024-02-16T10:40:19;13.40;99.90
22364;DHT22;11349;53.412;-1.328;2024-02-16T10:42:46;13.20;99.90
22364;DHT22;11349;53.412;-1.328;2024-02-16T10:45:13;13.10;99.90
22364;DHT22;11349;53.412;-1.328;2024-02-16T10:47:39;13.10;99.90
22364;DHT22;11349;53.412;-1.328;2024-02-16T10:50:05;13.00;99.90
22364;DHT22;11349;53.412;-1.328;2024-02-16T10:52:32;12.90;99.90
22364;DHT22;11349;53.412;-1.328;2024-02-16T10:54:59;13.00;99.90
22364;DHT22;11349;53.412;-1.328;2024-02-16T10:57:26;13.00;99.90
22364;DHT22;11349;53.412;-1.328;2024-02-16T10:59:53;13.30;99.90
22364;DHT22;11349;53.412;-1.328;2024-02-16T11:02:20;13.20;99.90
22364;DHT22;11349;53.412;-1.328;2024-02-16T11:04:46;13.40;99.90
22364;DHT22;11349;53.412;-1.328;2024-02-16T11:07:16;13.40;99.90
22364;DHT22;11349;53.412;-1.328;2024-02-16T11:09:43;13.30;99.90
22364;DHT22;11349;53.412;-1.328;2024-02-16T11:12:12;13.30;99.90
22364;DHT22;11349;53.412;-1.328;2024-02-16T11:14:40;13.30;99.90
22364;DHT22;11349;53.412;-1.328;2024-02-16T11:17:20;13.30;99.90
22364;DHT22;11349;53.412;-1.328;2024-02-16T11:19:47;13.30;99.90
22364;DHT22;11349;53.412;-1.328;2024-02-16T11:22:17;13.40;99.90
22364;DHT22;11349;53.412;-1.328;2024-02-16T11:24:48;13.60;99.90
22364;DHT22;11349;53.412;-1.328;2024-02-16T11:27:15;13.50;99.90
22364;DHT22;11349;53.412;-1.328;2024-02-16T11:29:47;13.70;99.90
22364;DHT22;11349;53.412;-1.328;2024-02-16T11:32:14;13.20;99.90
22364;DHT22;11349;53.412;-1.328;2024-02-16T11:34:39;13.10;99.90
22364;DHT22;11349;53.412;-1.328;2024-02-16T11:37:05;13.20;99.90
22364;DHT22;11349;53.412;-1.328;2024-02-16T11:39:31;13.30;99.90
22364;DHT22;11349;53.412;-1.328;2024-02-16T11:42:11;13.80;99.90
22364;DHT22;11349;53.412;-1.328;2024-02-16T11:44:38;13.40;99.90
22364;DHT22;11349;53.412;-1.328;2024-02-16T11:47:09;13.50;99.90
22364;DHT22;11349;53.412;-1.328;2024-02-16T11:49:38;13.70;99.90
22364;DHT22;11349;53.412;-1.328;2024-02-16T11:52:04;13.50;99.90
22364;DHT22;11349;53.412;-1.328;2024-02-16T11:54:31;13.60;99.90
22364;DHT22;11349;53.412;-1.328;2024-02-16T11:56:57;14.00;99.90
22364;DHT22;11349;53.412;-1.328;2024-02-16T11:59:23;14.10;99.90
22364;DHT22;11349;53.412;-1.328;2024-02-16T12:01:57;14.30;99.90
22364;DHT22;11349;53.412;-1.328;2024-02-16T12:04:27;14.00;99.90
22364;DHT22;11349;53.412;-1.328;2024-02-16T12:06:56;14.20;99.90
22364;DHT22;11349;53.412;-1.328;2024-02-16T12:09:22;14.30;99.90
22364;DHT22;11349;53.412;-1.328;2024-02-16T12:11:48;14.50;99.90
22364;DHT22;11349;53.412;-1.328;2024-02-16T12:14:16;14.50;99.90
22364;DHT22;11349;53.412;-1.328;2024-02-16T12:16:42;14.10;99.90
22364;DHT22;11349;53.412;-1.328;2024-02-16T12:19:07;14.10;99.90
22364;DHT22;11349;53.412;-1.328;2024-02-16T12:21:37;14.30;99.90
22364;DHT22;11349;53.412;-1.328;2024-02-16T12:24:03;14.60;99.90
22364;DHT22;11349;53.412;-1.328;2024-02-16T12:26:29;14.40;99.90
22364;DHT22;11349;53.412;-1.328;2024-02-16T12:28:55;14.50;99.90
22364;DHT22;11349;53.412;-1.328;2024-02-16T12:31:21;14.50;99.90
22364;DHT22;11349;53.412;-1.328;2024-02-16T12:33:47;14.30;99.90
22364;DHT22;11349;53.412;-1.328;2024-02-16T12:36:13;14.40;99.90
22364;DHT22;11349;53.412;-1.328;2024-02-16T12:38:40;14.50;99.90
22364;DHT22;11349;53.412;-1.328;2024-02-16T12:41:06;14.70;99.90
22364;DHT22;11349;53.412;-1.328;2024-02-16T12:43:32;14.70;99.90
22364;DHT22;11349;53.412;-1.328;2024-02-16T12:45:58;14.60;99.90
22364;DHT22;11349;53.412;-1.328;2024-02-16T12:48:27;14.60;99.90
22364;DHT22;11349;53.412;-1.328;2024-02-16T12:50:54;14.50;99.90
22364;DHT22;11349;53.412;-1.328;2024-02-16T12:53:19;14.80;99.90
22364;DHT22;11349;53.412;-1.328;2024-02-16T12:55:46;14.70;99.90
22364;DHT22;11349;53.412;-1.328;2024-02-16T12:58:16;14.40;99.90
22364;DHT22;11349;53.412;-1.328;2024-02-16T13:00:41;14.30;99.90
22364;DHT22;11349;53.412;-1.328;2024-02-16T13:03:07;14.20;99.90
22364;DHT22;11349;53.412;-1.328;2024-02-16T13:05:33;14.00;99.90
22364;DHT22;11349;53.412;-1.328;2024-02-16T13:07:59;14.20;99.90
22364;DHT22;11349;53.412;-1.328;2024-02-16T13:10:25;14.80;99.90
22364;DHT22;11349;53.412;-1.328;2024-02-16T13:12:51;14.80;99.90
22364;DHT22;11349;53.412;-1.328;2024-02-16T13:15:16;14.60;99.90
22364;DHT22;11349;53.412;-1.328;2024-02-16T13:17:42;14.50;99.90
22364;DHT22;11349;53.412;-1.328;2024-02-16T13:20:08;14.40;99.90
22364;DHT22;11349;53.412;-1.328;2024-02-16T13:22:36;14.40;99.90
22364;DHT22;11349;53.412;-1.328;2024-02-16T13:25:03;14.50;99.90
22364;DHT22;11349;53.412;-1.328;2024-02-16T13:27:29;14.80;99.90
22364;DHT22;11349;53.412;-1.328;2024-02-16T13:29:55;14.40;99.90
22364;DHT22;11349;53.412;-1.328;2024-02-16T13:32:21;14.60;99.90
22364;DHT22;11349;53.412;-1.328;2024-02-16T13:34:48;14.60;99.90
22364;DHT22;11349;53.412;-1.328;2024-02-16T13:37:13;14.50;99.90
22364;DHT22;11349;53.412;-1.328;2024-02-16T13:39:39;14.30;99.90
22364;DHT22;11349;53.412;-1.328;2024-02-16T13:42:05;14.30;99.90
22364;DHT22;11349;53.412;-1.328;2024-02-16T13:44:31;14.60;99.90
22364;DHT22;11349;53.412;-1.328;2024-02-16T13:46:57;14.70;99.90
22364;DHT22;11349;53.412;-1.328;2024-02-16T13:49:23;14.80;99.90
22364;DHT22;11349;53.412;-1.328;2024-02-16T13:51:48;14.60;99.90
22364;DHT22;11349;53.412;-1.328;2024-02-16T13:54:17;14.50;99.90
22364;DHT22;11349;53.412;-1.328;2024-02-16T13:56:43;14.50;99.90
22364;DHT22;11349;53.412;-1.328;2024-02-16T13:59:09;14.60;99.90
22364;DHT22;11349;53.412;-1.328;2024-02-16T14:01:35;14.50;99.90
22364;DHT22;11349;53.412;-1.328;2024-02-16T14:04:01;14.50;99.90
22364;DHT22;11349;53.412;-1.328;2024-02-16T14:06:28;14.30;99.90
22364;DHT22;11349;53.412;-1.328;2024-02-16T14:08:54;14.20;99.90
22364;DHT22;11349;53.412;-1.328;2024-02-16T14:11:21;14.30;99.90
22364;DHT22;11349;53.412;-1.328;2024-02-16T14:13:48;14.40;99.90
22364;DHT22;11349;53.412;-1.328;2024-02-16T14:16:14;14.70;99.90
22364;DHT22;11349;53.412;-1.328;2024-02-16T14:18:40;14.30;99.90
22364;DHT22;11349;53.412;-1.328;2024-02-16T14:21:05;14.10;99.90
22364;DHT22;11349;53.412;-1.328;2024-02-16T14:23:32;13.90;99.90
22364;DHT22;11349;53.412;-1.328;2024-02-16T14:25:58;13.80;99.90
22364;DHT22;11349;53.412;-1.328;2024-02-16T14:28:24;13.70;99.90
22364;DHT22;11349;53.412;-1.328;2024-02-16T14:30:49;13.80;99.90
22364;DHT22;11349;53.412;-1.328;2024-02-16T14:33:16;14.20;99.90
22364;DHT22;11349;53.412;-1.328;2024-02-16T14:35:43;14.10;99.90
22364;DHT22;11349;53.412;-1.328;2024-02-16T14:38:09;14.10;99.90
22364;DHT22;11349;53.412;-1.328;2024-02-16T14:40:35;14.20;99.90
22364;DHT22;11349;53.412;-1.328;2024-02-16T14:43:01;14.10;99.90
22364;DHT22;11349;53.412;-1.328;2024-02-16T14:45:27;14.10;99.90
22364;DHT22;11349;53.412;-1.328;2024-02-16T14:47:53;14.10;99.90
22364;DHT22;11349;53.412;-1.328;2024-02-16T14:50:18;14.00;99.90
22364;DHT22;11349;53.412;-1.328;2024-02-16T14:52:44;13.80;99.90
22364;DHT22;11349;53.412;-1.328;2024-02-16T14:55:11;13.70;99.90
22364;DHT22;11349;53.412;-1.328;2024-02-16T14:57:42;13.70;99.90
22364;DHT22;11349;53.412;-1.328;2024-02-16T15:00:11;13.60;99.90
22364;DHT22;11349;53.412;-1.328;2024-02-16T15:02:37;13.50;99.90
22364;DHT22;11349;53.412;-1.328;2024-02-16T15:05:07;13.50;99.90
22364;DHT22;11349;53.412;-1.328;2024-02-16T15:07:33;13.50;99.90
22364;DHT22;11349;53.412;-1.328;2024-02-16T15:09:59;13.50;99.90
22364;DHT22;11349;53.412;-1.328;2024-02-16T15:12:25;13.50;99.90